createdAt,value
2022-12-17T00:00:28.297Z,25.55
2022-12-17T00:03:16.504Z,25.88
2022-12-17T00:06:03.949Z,27.30
2022-12-17T00:08:49.321Z,25.75
2022-12-17T00:11:34.631Z,25.67
2022-12-17T00:14:19.813Z,25.95
2022-12-17T00:17:19.926Z,24.85
2022-12-17T00:20:05.526Z,24.88
2022-12-17T00:22:52.596Z,23.48
2022-12-17T00:25:39.050Z,23.85
2022-12-17T00:28:28.726Z,23.80
2022-12-17T00:31:14.065Z,24.92
2022-12-17T00:33:59.861Z,22.90
2022-12-17T00:36:45.737Z,23.45
2022-12-17T00:39:32.643Z,24.95
2022-12-17T00:42:18.344Z,22.60
2022-12-17T00:45:03.458Z,21.33
2022-12-17T00:47:49.175Z,23.88
2022-12-17T00:50:34.487Z,23.13
2022-12-17T00:53:19.754Z,22.75
2022-12-17T00:56:06.766Z,21.83
2022-12-17T00:58:52.028Z,22.17
2022-12-17T01:01:37.691Z,23.35
2022-12-17T01:04:23.583Z,22.90
2022-12-17T01:07:09.145Z,22.10
2022-12-17T01:09:55.372Z,23.48
2022-12-17T01:12:42.878Z,23.17
2022-12-17T01:15:28.786Z,24.58
2022-12-17T01:18:14.374Z,24.92
2022-12-17T01:21:08.504Z,24.15
2022-12-17T01:23:53.628Z,24.02
2022-12-17T01:26:41.522Z,24.92
2022-12-17T01:29:28.655Z,24.13
2022-12-17T01:32:14.092Z,24.17
2022-12-17T01:35:10.731Z,22.70
2022-12-17T01:38:10.679Z,24.10
2022-12-17T01:40:56.136Z,23.77
2022-12-17T01:43:52.017Z,24.73
2022-12-17T01:46:39.598Z,23.85
2022-12-17T01:49:27.733Z,25.40
2022-12-17T01:52:12.978Z,25.13
2022-12-17T01:55:01.832Z,24.45
2022-12-17T01:57:47.758Z,25.38
2022-12-17T02:00:34.891Z,23.02
2022-12-17T02:03:22.883Z,25.75
2022-12-17T02:06:19.420Z,24.95
2022-12-17T02:09:11.320Z,24.90
2022-12-17T02:12:06.100Z,23.45
2022-12-17T02:14:56.430Z,24.23
2022-12-17T02:17:49.235Z,24.50
2022-12-17T02:20:42.891Z,24.42
2022-12-17T02:23:38.560Z,23.20
2022-12-17T02:26:31.489Z,24.70
2022-12-17T02:29:20.584Z,24.75
2022-12-17T02:32:06.971Z,24.40
2022-12-17T02:35:02.101Z,22.98
2022-12-17T02:37:47.710Z,25.60
2022-12-17T02:40:33.367Z,24.52
2022-12-17T02:43:19.672Z,23.85
2022-12-17T02:46:07.306Z,25.25
2022-12-17T02:48:53.662Z,24.77
2022-12-17T02:51:40.094Z,24.33
2022-12-17T02:54:26.805Z,24.10
2022-12-17T02:57:13.431Z,22.20
2022-12-17T02:59:58.843Z,24.13
2022-12-17T03:02:45.011Z,24.58
2022-12-17T03:05:46.129Z,22.75
2022-12-17T03:08:34.336Z,25.33
2022-12-17T03:11:19.955Z,23.77
2022-12-17T03:14:05.646Z,25.35
2022-12-17T03:16:51.300Z,24.73
2022-12-17T03:19:38.360Z,24.80
2022-12-17T03:22:35.195Z,26.92
2022-12-17T03:25:20.625Z,23.02
2022-12-17T03:28:06.014Z,26.30
2022-12-17T03:30:51.385Z,26.00
2022-12-17T03:33:37.305Z,26.27
2022-12-17T03:36:24.624Z,24.73
2022-12-17T03:39:09.938Z,25.23
2022-12-17T03:41:55.168Z,26.55
2022-12-17T03:44:40.796Z,26.52
2022-12-17T03:47:26.152Z,27.10
2022-12-17T03:50:11.783Z,27.27
2022-12-17T03:52:58.576Z,25.48
2022-12-17T03:55:44.104Z,26.55
2022-12-17T03:58:29.433Z,27.15
2022-12-17T04:01:15.011Z,29.23
2022-12-17T04:04:00.560Z,25.30
2022-12-17T04:06:46.245Z,26.80
2022-12-17T04:09:32.920Z,26.83
2022-12-17T04:12:18.142Z,24.50
2022-12-17T04:15:03.910Z,25.80
2022-12-17T04:17:49.673Z,27.33
2022-12-17T04:20:35.316Z,26.27
2022-12-17T04:23:20.615Z,26.42
2022-12-17T04:26:07.617Z,26.40
2022-12-17T04:28:52.993Z,26.00
2022-12-17T04:31:38.333Z,26.45
2022-12-17T04:34:24.014Z,25.30
2022-12-17T04:37:09.663Z,27.67
2022-12-17T04:40:03.583Z,28.08
2022-12-17T04:42:50.433Z,27.55
2022-12-17T04:45:35.854Z,26.30
2022-12-17T04:48:21.919Z,26.38
2022-12-17T04:51:07.515Z,25.35
2022-12-17T04:53:53.275Z,25.50
2022-12-17T04:56:39.528Z,25.17
2022-12-17T04:59:26.484Z,26.25
2022-12-17T05:02:12.391Z,26.40
2022-12-17T05:04:58.049Z,26.65
2022-12-17T05:07:43.900Z,25.77
2022-12-17T05:10:29.312Z,26.27
2022-12-17T05:13:16.167Z,25.33
2022-12-17T05:16:03.202Z,25.13
2022-12-17T05:18:49.047Z,26.08
2022-12-17T05:21:34.699Z,26.20
2022-12-17T05:24:20.444Z,26.67
2022-12-17T05:27:06.391Z,26.83
2022-12-17T05:29:52.146Z,26.77
2022-12-17T05:32:38.959Z,27.50
2022-12-17T05:35:25.301Z,26.33
2022-12-17T05:38:10.947Z,27.75
2022-12-17T05:40:56.421Z,25.95
2022-12-17T05:43:41.557Z,27.35
2022-12-17T05:46:26.845Z,27.20
2022-12-17T05:49:13.959Z,25.67
2022-12-17T05:51:59.469Z,27.63
2022-12-17T05:54:45.139Z,25.63
2022-12-17T05:57:30.561Z,25.65
2022-12-17T06:00:15.876Z,25.05
2022-12-17T06:03:01.491Z,26.23
2022-12-17T06:05:48.812Z,25.55
2022-12-17T06:08:34.145Z,26.98
2022-12-17T06:11:19.896Z,28.08
2022-12-17T06:14:06.019Z,27.88
2022-12-17T06:16:51.608Z,26.75
2022-12-17T06:19:36.094Z,27.88
2022-12-17T06:22:23.286Z,28.23
2022-12-17T06:25:08.826Z,29.77
2022-12-17T06:27:54.126Z,30.05
2022-12-17T06:30:40.024Z,27.60
2022-12-17T06:33:27.494Z,28.67
2022-12-17T06:36:21.299Z,29.65
2022-12-17T06:39:09.474Z,29.70
2022-12-17T06:42:02.041Z,28.98
2022-12-17T06:44:49.531Z,29.35
2022-12-17T06:47:46.491Z,28.45
2022-12-17T06:50:32.240Z,30.02
2022-12-17T06:53:19.806Z,30.35
2022-12-17T06:56:06.704Z,29.48
2022-12-17T06:58:52.098Z,30.13
2022-12-17T07:01:37.779Z,30.35
2022-12-17T07:04:24.448Z,30.63
2022-12-17T07:07:10.153Z,30.23
2022-12-17T07:09:55.536Z,30.55
2022-12-17T07:12:44.241Z,30.17
2022-12-17T07:15:30.135Z,30.80
2022-12-17T07:18:16.834Z,30.38
2022-12-17T07:21:02.631Z,28.67
2022-12-17T07:23:48.255Z,28.25
2022-12-17T07:26:33.936Z,29.80
2022-12-17T07:29:20.902Z,27.75
2022-12-17T07:32:06.289Z,29.40
2022-12-17T07:34:51.983Z,30.45
2022-12-17T07:37:37.445Z,29.27
2022-12-17T07:40:24.050Z,30.33
2022-12-17T07:43:09.535Z,28.60
2022-12-17T07:45:56.380Z,27.95
2022-12-17T07:48:41.928Z,27.67
2022-12-17T07:51:27.424Z,28.55
2022-12-17T07:54:12.991Z,29.23
2022-12-17T07:56:58.412Z,28.05
2022-12-17T07:59:43.907Z,28.98
2022-12-17T08:02:30.970Z,29.48
2022-12-17T08:05:12.906Z,27.30
2022-12-17T08:07:58.159Z,29.20
2022-12-17T08:10:43.578Z,28.27
2022-12-17T08:13:29.202Z,29.50
2022-12-17T08:16:14.906Z,28.40
2022-12-17T08:19:01.779Z,29.05
2022-12-17T08:21:47.859Z,30.63
2022-12-17T08:24:33.367Z,29.95
2022-12-17T08:27:27.341Z,30.48
2022-12-17T08:30:13.078Z,33.55
2022-12-17T08:32:58.660Z,31.52
2022-12-17T08:35:45.478Z,31.73
2022-12-17T08:38:30.840Z,33.05
2022-12-17T08:41:18.248Z,32.08
2022-12-17T08:44:04.070Z,33.90
2022-12-17T08:46:49.319Z,33.63
2022-12-17T08:49:34.508Z,34.38
2022-12-17T08:52:21.532Z,34.90
2022-12-17T08:55:15.345Z,32.25
2022-12-17T08:58:01.057Z,32.28
2022-12-17T09:00:46.473Z,31.80
2022-12-17T09:03:31.915Z,34.45
2022-12-17T09:06:17.463Z,33.08
2022-12-17T09:09:04.552Z,32.72
2022-12-17T09:11:55.658Z,34.17
2022-12-17T09:14:40.722Z,32.92
2022-12-17T09:17:26.588Z,33.50
2022-12-17T09:20:12.008Z,36.35
2022-12-17T09:22:57.728Z,33.40
2022-12-17T09:25:58.253Z,34.45
2022-12-17T09:28:44.175Z,32.53
2022-12-17T09:31:35.364Z,34.72
2022-12-17T09:34:22.654Z,35.63
2022-12-17T09:37:07.966Z,34.75
2022-12-17T09:39:53.417Z,32.53
2022-12-17T09:42:53.507Z,35.38
2022-12-17T09:45:49.763Z,36.78
2022-12-17T09:48:41.576Z,34.90
2022-12-17T09:51:40.494Z,34.00
2022-12-17T09:54:33.281Z,35.95
2022-12-17T09:57:19.141Z,33.97
2022-12-17T10:00:06.226Z,35.05
2022-12-17T10:02:52.309Z,30.90
2022-12-17T10:05:42.042Z,35.65
2022-12-17T10:08:32.576Z,35.03
2022-12-17T10:11:34.542Z,33.65
2022-12-17T10:14:21.592Z,33.20
2022-12-17T10:17:11.876Z,33.60
2022-12-17T10:20:01.051Z,33.90
2022-12-17T10:22:47.068Z,32.35
2022-12-17T10:25:34.945Z,33.30
2022-12-17T10:28:22.941Z,33.85
2022-12-17T10:31:08.376Z,31.60
2022-12-17T10:33:58.506Z,34.42
2022-12-17T10:36:46.768Z,34.30
2022-12-17T10:39:39.325Z,31.90
2022-12-17T10:42:39.559Z,34.13
2022-12-17T10:45:42.384Z,32.92
2022-12-17T10:48:42.048Z,31.70
2022-12-17T10:51:39.779Z,33.63
2022-12-17T10:54:45.410Z,33.22
2022-12-17T10:57:46.004Z,31.95
2022-12-17T11:00:47.426Z,31.05
2022-12-17T11:03:43.800Z,32.20
2022-12-17T11:06:31.690Z,32.67
2022-12-17T11:09:21.471Z,33.40
2022-12-17T11:12:07.881Z,35.17
2022-12-17T11:15:02.557Z,34.67
2022-12-17T11:17:48.723Z,35.78
2022-12-17T11:20:43.062Z,36.50
2022-12-17T11:23:35.841Z,39.78
2022-12-17T11:26:27.489Z,38.00
2022-12-17T11:29:24.686Z,35.08
2022-12-17T11:32:21.950Z,35.17
2022-12-17T11:35:22.131Z,35.60
2022-12-17T11:38:15.696Z,36.53
2022-12-17T11:41:03.904Z,34.70
2022-12-17T11:43:59.327Z,33.30
2022-12-17T11:46:55.766Z,34.47
2022-12-17T11:49:49.155Z,35.25
2022-12-17T11:52:44.681Z,35.00
2022-12-17T11:55:39.005Z,35.28
2022-12-17T11:58:32.883Z,35.28
2022-12-17T12:01:28.560Z,32.95
2022-12-17T12:04:24.872Z,35.05
2022-12-17T12:07:19.208Z,33.60
2022-12-17T12:10:12.020Z,33.85
2022-12-17T12:13:08.976Z,35.60
2022-12-17T12:16:05.101Z,33.30
2022-12-17T12:19:01.629Z,32.80
2022-12-17T12:21:57.762Z,33.00
2022-12-17T12:25:01.022Z,32.83
2022-12-17T12:27:56.164Z,30.88
2022-12-17T12:30:45.042Z,31.38
2022-12-17T12:33:47.753Z,31.88
2022-12-17T12:36:37.313Z,33.28
2022-12-17T12:39:23.642Z,32.60
2022-12-17T12:42:13.139Z,33.60
2022-12-17T12:45:07.829Z,33.30
2022-12-17T12:48:02.792Z,33.47
2022-12-17T12:51:08.019Z,32.13
2022-12-17T12:53:54.696Z,32.88
2022-12-17T12:56:48.061Z,31.35
2022-12-17T12:59:50.593Z,30.73
2022-12-17T13:02:48.404Z,32.35
2022-12-17T13:05:34.185Z,32.00
2022-12-17T13:08:20.822Z,30.48
2022-12-17T13:10:51.286Z,33.25
2022-12-17T13:13:31.207Z,30.67
2022-12-17T13:16:03.398Z,35.58
2022-12-17T13:18:35.543Z,43.03
2022-12-17T13:21:06.004Z,36.92
2022-12-17T13:23:36.072Z,32.45
2022-12-17T13:26:23.743Z,32.88
2022-12-17T13:29:13.586Z,32.42
2022-12-17T13:31:57.115Z,29.08
2022-12-17T13:34:38.616Z,30.90
2022-12-17T13:37:13.910Z,34.08
2022-12-17T13:39:51.123Z,30.95
2022-12-17T13:42:28.141Z,33.08
2022-12-17T13:44:57.077Z,32.08
2022-12-17T13:47:27.839Z,31.02
2022-12-17T13:50:32.654Z,33.67
2022-12-17T13:52:45.451Z,36.15
2022-12-17T13:55:21.171Z,36.67
2022-12-17T13:57:51.581Z,37.72
2022-12-17T14:00:24.971Z,39.40
2022-12-17T14:02:54.152Z,35.08
2022-12-17T14:05:28.696Z,30.65
2022-12-17T14:08:00.516Z,33.63
2022-12-17T14:10:29.725Z,33.63
2022-12-17T14:13:06.085Z,31.85
2022-12-17T14:15:34.667Z,33.38
2022-12-17T14:18:03.465Z,31.77
2022-12-17T14:20:33.385Z,30.02
2022-12-17T14:23:03.914Z,29.13
2022-12-17T14:25:37.112Z,32.53
2022-12-17T14:28:08.444Z,30.10
2022-12-17T14:31:02.413Z,31.08
2022-12-17T14:33:29.853Z,31.08
2022-12-17T14:36:03.095Z,31.60
2022-12-17T14:38:38.341Z,31.48
2022-12-17T14:41:26.474Z,30.88
2022-12-17T14:44:00.909Z,33.47
2022-12-17T14:46:30.561Z,32.55
2022-12-17T14:49:02.853Z,32.55
2022-12-17T14:51:34.215Z,31.48
2022-12-17T14:54:29.164Z,34.65
2022-12-17T14:56:59.022Z,31.50
2022-12-17T14:59:35.829Z,31.23
2022-12-17T15:02:06.882Z,30.73
2022-12-17T15:04:37.660Z,29.70
2022-12-17T15:07:06.281Z,28.90
2022-12-17T15:09:37.261Z,32.10
2022-12-17T15:12:05.854Z,30.88
2022-12-17T15:14:35.132Z,30.20
2022-12-17T15:17:03.112Z,31.15
2022-12-17T15:19:31.084Z,32.88
2022-12-17T15:21:59.070Z,30.77
2022-12-17T15:24:27.189Z,30.35
2022-12-17T15:26:55.161Z,30.48
2022-12-17T15:29:24.292Z,30.52
2022-12-17T15:31:54.834Z,29.67
2022-12-17T15:34:22.916Z,31.20
2022-12-17T15:36:50.865Z,31.50
2022-12-17T15:39:19.001Z,30.63
2022-12-17T15:42:04.542Z,29.67
2022-12-17T15:44:32.480Z,30.08
2022-12-17T15:47:03.777Z,32.83
2022-12-17T15:49:31.784Z,33.10
2022-12-17T15:51:59.713Z,32.42
2022-12-17T15:54:27.780Z,31.02
2022-12-17T15:56:56.301Z,32.30
2022-12-17T15:59:24.188Z,33.28
2022-12-17T16:01:52.390Z,32.40
2022-12-17T16:04:25.150Z,26.55
2022-12-17T16:06:53.366Z,25.92
2022-12-17T16:09:24.551Z,26.40
2022-12-17T16:11:55.194Z,26.73
2022-12-17T16:14:23.758Z,29.38
2022-12-17T16:16:52.310Z,30.80
2022-12-17T16:19:22.925Z,29.50
2022-12-17T16:21:51.029Z,28.75
2022-12-17T16:24:19.072Z,29.80
2022-12-17T16:26:47.043Z,27.80
2022-12-17T16:29:15.250Z,29.85
2022-12-17T16:31:43.196Z,30.55
2022-12-17T16:34:11.942Z,30.45
2022-12-17T16:36:41.434Z,30.00
2022-12-17T16:39:09.419Z,28.27
2022-12-17T16:41:37.387Z,30.17
2022-12-17T16:44:06.367Z,28.52
2022-12-17T16:46:35.989Z,27.13
2022-12-17T16:49:06.960Z,27.63
2022-12-17T16:51:35.472Z,27.55
2022-12-17T16:54:07.943Z,26.15
2022-12-17T16:56:40.121Z,37.67
2022-12-17T16:59:09.487Z,32.90
2022-12-17T17:01:38.399Z,28.95
2022-12-17T17:04:08.207Z,27.52
2022-12-17T17:06:40.073Z,29.05
2022-12-17T17:09:09.580Z,29.52
2022-12-17T17:11:37.787Z,28.88
2022-12-17T17:14:06.761Z,28.60
2022-12-17T17:16:35.188Z,27.85
2022-12-17T17:19:03.922Z,27.10
2022-12-17T17:21:34.332Z,28.27
2022-12-17T17:24:05.099Z,26.67
2022-12-17T17:26:35.536Z,27.08
2022-12-17T17:29:04.567Z,26.52
2022-12-17T17:32:08.535Z,26.80
2022-12-17T17:34:21.041Z,26.73
2022-12-17T17:36:48.959Z,28.08
2022-12-17T17:39:17.135Z,28.88
2022-12-17T17:41:46.498Z,27.45
2022-12-17T17:44:15.203Z,28.65
2022-12-17T17:46:43.723Z,28.65
2022-12-17T17:49:12.655Z,28.88
2022-12-17T17:54:31.056Z,27.23
2022-12-17T17:57:00.331Z,30.10
2022-12-17T17:59:33.360Z,30.00
2022-12-17T18:04:30.862Z,29.02
2022-12-17T18:09:46.907Z,28.08
2022-12-17T18:12:33.775Z,30.17
2022-12-17T18:15:18.438Z,30.08
2022-12-17T18:17:48.851Z,28.55
2022-12-17T18:20:17.972Z,29.67
2022-12-17T18:22:47.170Z,29.98
2022-12-17T18:25:16.009Z,30.98
2022-12-17T18:27:45.523Z,31.13
2022-12-17T18:30:16.290Z,30.63
2022-12-17T18:32:44.730Z,28.00
2022-12-17T18:35:12.614Z,29.95
2022-12-17T18:37:40.594Z,30.77
2022-12-17T18:40:09.645Z,29.13
2022-12-17T18:42:55.380Z,31.27
2022-12-17T18:45:24.836Z,29.50
2022-12-17T18:47:53.624Z,31.92
2022-12-17T18:50:21.561Z,30.85
2022-12-17T18:52:49.564Z,32.03
2022-12-17T18:55:17.723Z,32.50
2022-12-17T18:57:45.639Z,30.85
2022-12-17T19:00:14.851Z,30.75
2022-12-17T19:02:44.406Z,29.20
2022-12-17T19:05:12.615Z,29.55
2022-12-17T19:07:40.535Z,31.00
2022-12-17T19:10:09.240Z,32.38
2022-12-17T19:12:37.361Z,32.05
2022-12-17T19:15:05.938Z,31.90
2022-12-17T19:17:33.864Z,30.55
2022-12-17T19:20:03.316Z,30.67
2022-12-17T19:22:31.247Z,30.73
2022-12-17T19:24:59.156Z,30.98
2022-12-17T19:27:28.798Z,32.13
2022-12-17T19:29:57.184Z,33.03
2022-12-17T19:32:25.324Z,31.83
2022-12-17T19:34:53.326Z,32.45
2022-12-17T19:37:22.672Z,34.05
2022-12-17T19:39:50.661Z,31.15
2022-12-17T19:42:34.978Z,32.58
2022-12-17T19:45:08.363Z,31.30
2022-12-17T19:47:36.241Z,30.58
2022-12-17T19:50:05.427Z,28.17
2022-12-17T19:52:35.320Z,29.55
2022-12-17T19:55:03.220Z,28.70
2022-12-17T19:57:31.753Z,29.27
2022-12-17T19:59:59.821Z,30.42
2022-12-17T20:02:32.585Z,31.25
2022-12-17T20:05:01.484Z,31.77
2022-12-17T20:07:29.434Z,29.30
2022-12-17T20:09:58.804Z,27.42
2022-12-17T20:12:26.739Z,29.40
2022-12-17T20:14:54.595Z,27.15
2022-12-17T20:17:22.493Z,27.25
2022-12-17T20:19:52.340Z,29.02
2022-12-17T20:22:21.043Z,27.73
2022-12-17T20:24:48.993Z,29.60
2022-12-17T20:27:28.653Z,31.02
2022-12-17T20:29:59.410Z,30.83
2022-12-17T20:32:28.241Z,29.70
2022-12-17T20:34:56.195Z,29.88
2022-12-17T20:37:24.123Z,30.75
2022-12-17T20:39:52.082Z,31.25
2022-12-17T20:42:21.428Z,31.17
2022-12-17T20:44:53.359Z,29.58
2022-12-17T20:47:21.820Z,28.42
2022-12-17T20:49:49.800Z,28.58
2022-12-17T20:52:17.824Z,28.80
2022-12-17T20:54:45.867Z,27.45
2022-12-17T20:57:13.744Z,26.48
2022-12-17T20:59:43.100Z,28.80
2022-12-17T21:02:11.416Z,25.58
2022-12-17T21:04:39.394Z,27.77
2022-12-17T21:07:07.346Z,29.48
2022-12-17T21:09:35.344Z,30.10
2022-12-17T21:12:03.256Z,28.60
2022-12-17T21:14:35.556Z,29.30
2022-12-17T21:17:05.464Z,29.83
2022-12-17T21:19:33.646Z,28.45
2022-12-17T21:22:01.848Z,29.15
2022-12-17T21:24:29.814Z,26.67
2022-12-17T21:26:57.833Z,27.77
2022-12-17T21:29:25.834Z,26.05
2022-12-17T21:31:53.916Z,26.27
2022-12-17T21:34:25.264Z,28.45
2022-12-17T21:36:53.472Z,25.80
2022-12-17T21:39:21.667Z,25.60
2022-12-17T21:42:04.470Z,27.17
2022-12-17T21:44:32.481Z,25.08
2022-12-17T21:47:00.715Z,27.15
2022-12-17T21:49:29.969Z,25.92
2022-12-17T21:52:00.069Z,27.27
2022-12-17T21:54:28.359Z,25.05
2022-12-17T21:56:56.250Z,26.35
2022-12-17T21:59:24.334Z,26.27
2022-12-17T22:01:53.694Z,25.38
2022-12-17T22:04:21.769Z,26.15
2022-12-17T22:06:54.485Z,26.00
2022-12-17T22:09:43.127Z,25.23
2022-12-17T22:12:32.198Z,27.95
2022-12-17T22:15:00.082Z,26.88
2022-12-17T22:17:28.499Z,26.27
2022-12-17T22:19:56.467Z,26.73
2022-12-17T22:22:25.851Z,28.15
2022-12-17T22:24:53.842Z,28.02
2022-12-17T22:27:21.901Z,25.88
2022-12-17T22:30:07.675Z,24.50
2022-12-17T22:32:52.887Z,25.00
2022-12-17T22:37:16.917Z,24.70
2022-12-17T22:42:31.223Z,24.23
2022-12-17T22:44:35.377Z,23.90
2022-12-17T22:44:45.327Z,24.85
2022-12-17T22:46:43.863Z,25.95
2022-12-17T22:49:12.243Z,25.15
2022-12-17T22:51:42.056Z,25.25
2022-12-17T22:54:13.959Z,27.25
2022-12-17T22:57:10.313Z,26.00
2022-12-17T22:59:31.944Z,24.23
2022-12-17T23:01:59.909Z,27.55
2022-12-17T23:04:27.955Z,26.92
2022-12-17T23:06:55.964Z,27.00
2022-12-17T23:09:25.135Z,28.05
2022-12-17T23:11:53.115Z,24.73
2022-12-17T23:14:21.440Z,24.05
2022-12-17T23:16:49.403Z,23.73
2022-12-17T23:19:17.321Z,24.92
2022-12-17T23:21:45.259Z,26.52
2022-12-17T23:24:13.281Z,25.77
2022-12-17T23:26:42.492Z,24.08
2022-12-17T23:29:19.389Z,25.63
2022-12-17T23:31:47.982Z,25.42
2022-12-17T23:34:16.182Z,26.05
2022-12-17T23:36:44.211Z,26.52
2022-12-17T23:39:12.371Z,26.65
2022-12-17T23:41:40.302Z,25.80
2022-12-17T23:44:09.539Z,26.52
2022-12-17T23:46:37.781Z,25.98
2022-12-17T23:49:06.202Z,25.35
2022-12-17T23:51:34.578Z,25.13
2022-12-17T23:54:02.617Z,25.70
2022-12-17T23:56:30.536Z,26.58
2022-12-17T23:59:00.162Z,25.95
